sensor_id;sensor_type;location;lat;lon;timestamp;P1;durP1;ratioP1;P2;durP2;ratioP2
58657;SDS011;44428;45.630;13.786;2023-02-22T00:00:10;77.55;;;49.25;;
58657;SDS011;44428;45.630;13.786;2023-02-22T00:02:50;73.45;;;50.17;;
58657;SDS011;44428;45.630;13.786;2023-02-22T00:05:22;75.70;;;50.30;;
58657;SDS011;44428;45.630;13.786;2023-02-22T00:07:49;76.18;;;51.65;;
58657;SDS011;44428;45.630;13.786;2023-02-22T00:10:15;79.70;;;50.47;;
58657;SDS011;44428;45.630;13.786;2023-02-22T00:12:45;79.63;;;52.00;;
58657;SDS011;44428;45.630;13.786;2023-02-22T00:15:16;80.93;;;51.28;;
58657;SDS011;44428;45.630;13.786;2023-02-22T00:17:43;76.53;;;52.13;;
58657;SDS011;44428;45.630;13.786;2023-02-22T00:20:11;88.10;;;51.70;;
58657;SDS011;44428;45.630;13.786;2023-02-22T00:22:45;77.82;;;51.55;;
58657;SDS011;44428;45.630;13.786;2023-02-22T00:25:14;74.30;;;48.63;;
58657;SDS011;44428;45.630;13.786;2023-02-22T00:27:47;72.82;;;48.13;;
58657;SDS011;44428;45.630;13.786;2023-02-22T00:30:21;75.50;;;47.78;;
58657;SDS011;44428;45.630;13.786;2023-02-22T00:32:53;73.45;;;48.83;;
58657;SDS011;44428;45.630;13.786;2023-02-22T00:35:22;79.28;;;50.65;;
58657;SDS011;44428;45.630;13.786;2023-02-22T00:37:52;84.28;;;51.25;;
58657;SDS011;44428;45.630;13.786;2023-02-22T00:40:24;73.72;;;48.60;;
58657;SDS011;44428;45.630;13.786;2023-02-22T00:42:52;76.03;;;49.03;;
58657;SDS011;44428;45.630;13.786;2023-02-22T00:45:20;77.93;;;49.47;;
58657;SDS011;44428;45.630;13.786;2023-02-22T00:47:48;76.88;;;50.92;;
58657;SDS011;44428;45.630;13.786;2023-02-22T00:50:16;78.95;;;51.72;;
58657;SDS011;44428;45.630;13.786;2023-02-22T00:52:43;77.53;;;49.95;;
58657;SDS011;44428;45.630;13.786;2023-02-22T00:55:14;85.40;;;51.17;;
58657;SDS011;44428;45.630;13.786;2023-02-22T00:57:46;84.15;;;52.00;;
58657;SDS011;44428;45.630;13.786;2023-02-22T01:00:17;80.80;;;51.90;;
58657;SDS011;44428;45.630;13.786;2023-02-22T01:02:55;77.18;;;50.78;;
58657;SDS011;44428;45.630;13.786;2023-02-22T01:05:22;87.45;;;50.42;;
58657;SDS011;44428;45.630;13.786;2023-02-22T01:07:52;79.95;;;50.78;;
58657;SDS011;44428;45.630;13.786;2023-02-22T01:10:21;85.53;;;51.08;;
58657;SDS011;44428;45.630;13.786;2023-02-22T01:12:50;83.43;;;52.35;;
58657;SDS011;44428;45.630;13.786;2023-02-22T01:15:21;82.93;;;51.08;;
58657;SDS011;44428;45.630;13.786;2023-02-22T01:17:49;82.38;;;51.72;;
58657;SDS011;44428;45.630;13.786;2023-02-22T01:20:18;80.20;;;50.60;;
58657;SDS011;44428;45.630;13.786;2023-02-22T01:22:54;83.70;;;51.25;;
58657;SDS011;44428;45.630;13.786;2023-02-22T01:25:23;83.53;;;52.22;;
58657;SDS011;44428;45.630;13.786;2023-02-22T01:27:51;81.28;;;52.42;;
58657;SDS011;44428;45.630;13.786;2023-02-22T01:30:23;87.32;;;53.08;;
58657;SDS011;44428;45.630;13.786;2023-02-22T01:32:50;88.18;;;53.42;;
58657;SDS011;44428;45.630;13.786;2023-02-22T01:35:18;80.53;;;52.22;;
58657;SDS011;44428;45.630;13.786;2023-02-22T01:37:46;82.55;;;52.10;;
58657;SDS011;44428;45.630;13.786;2023-02-22T01:40:20;84.05;;;53.38;;
58657;SDS011;44428;45.630;13.786;2023-02-22T01:42:59;82.53;;;51.05;;
58657;SDS011;44428;45.630;13.786;2023-02-22T01:50:25;81.45;;;51.47;;
58657;SDS011;44428;45.630;13.786;2023-02-22T01:52:52;78.75;;;50.28;;
58657;SDS011;44428;45.630;13.786;2023-02-22T01:55:18;75.75;;;49.72;;
58657;SDS011;44428;45.630;13.786;2023-02-22T01:57:45;77.50;;;48.50;;
58657;SDS011;44428;45.630;13.786;2023-02-22T02:00:13;78.05;;;48.55;;
58657;SDS011;44428;45.630;13.786;2023-02-22T02:02:48;72.30;;;48.33;;
58657;SDS011;44428;45.630;13.786;2023-02-22T02:05:21;75.68;;;48.88;;
58657;SDS011;44428;45.630;13.786;2023-02-22T02:07:50;71.95;;;47.60;;
58657;SDS011;44428;45.630;13.786;2023-02-22T02:10:19;72.15;;;46.33;;
58657;SDS011;44428;45.630;13.786;2023-02-22T02:12:46;77.45;;;47.88;;
58657;SDS011;44428;45.630;13.786;2023-02-22T02:15:16;74.28;;;48.60;;
58657;SDS011;44428;45.630;13.786;2023-02-22T02:17:51;65.45;;;41.65;;
58657;SDS011;44428;45.630;13.786;2023-02-22T02:26:08;74.07;;;46.03;;
58657;SDS011;44428;45.630;13.786;2023-02-22T02:29:20;68.53;;;43.72;;
58657;SDS011;44428;45.630;13.786;2023-02-22T02:32:16;72.80;;;42.92;;
58657;SDS011;44428;45.630;13.786;2023-02-22T02:37:41;71.20;;;44.08;;
58657;SDS011;44428;45.630;13.786;2023-02-22T02:43:10;73.30;;;45.65;;
58657;SDS011;44428;45.630;13.786;2023-02-22T02:46:34;72.68;;;48.45;;
58657;SDS011;44428;45.630;13.786;2023-02-22T02:48:50;74.50;;;47.50;;
58657;SDS011;44428;45.630;13.786;2023-02-22T02:51:22;72.38;;;46.72;;
58657;SDS011;44428;45.630;13.786;2023-02-22T02:53:53;71.88;;;45.58;;
58657;SDS011;44428;45.630;13.786;2023-02-22T02:56:22;76.53;;;48.13;;
58657;SDS011;44428;45.630;13.786;2023-02-22T02:58:49;76.80;;;46.90;;
58657;SDS011;44428;45.630;13.786;2023-02-22T03:01:19;73.53;;;47.20;;
58657;SDS011;44428;45.630;13.786;2023-02-22T03:03:55;79.03;;;47.92;;
58657;SDS011;44428;45.630;13.786;2023-02-22T03:12:00;72.32;;;46.28;;
58657;SDS011;44428;45.630;13.786;2023-02-22T03:14:47;69.03;;;43.65;;
58657;SDS011;44428;45.630;13.786;2023-02-22T03:18:00;70.43;;;43.92;;
58657;SDS011;44428;45.630;13.786;2023-02-22T03:20:54;74.28;;;45.45;;
58657;SDS011;44428;45.630;13.786;2023-02-22T03:23:23;69.90;;;45.83;;
58657;SDS011;44428;45.630;13.786;2023-02-22T03:26:10;73.25;;;44.67;;
58657;SDS011;44428;45.630;13.786;2023-02-22T03:28:41;71.78;;;45.83;;
58657;SDS011;44428;45.630;13.786;2023-02-22T03:31:14;73.63;;;42.97;;
58657;SDS011;44428;45.630;13.786;2023-02-22T03:33:46;72.03;;;44.42;;
58657;SDS011;44428;45.630;13.786;2023-02-22T03:36:18;69.30;;;40.67;;
58657;SDS011;44428;45.630;13.786;2023-02-22T03:38:58;62.45;;;36.08;;
58657;SDS011;44428;45.630;13.786;2023-02-22T03:41:29;70.25;;;40.20;;
58657;SDS011;44428;45.630;13.786;2023-02-22T03:44:01;64.25;;;39.03;;
58657;SDS011;44428;45.630;13.786;2023-02-22T03:46:35;63.55;;;38.85;;
58657;SDS011;44428;45.630;13.786;2023-02-22T03:49:05;59.83;;;35.78;;
58657;SDS011;44428;45.630;13.786;2023-02-22T03:51:42;56.63;;;36.90;;
58657;SDS011;44428;45.630;13.786;2023-02-22T03:54:08;55.95;;;35.22;;
58657;SDS011;44428;45.630;13.786;2023-02-22T03:56:43;51.00;;;32.38;;
58657;SDS011;44428;45.630;13.786;2023-02-22T03:59:17;50.72;;;32.95;;
58657;SDS011;44428;45.630;13.786;2023-02-22T04:01:51;58.08;;;32.38;;
58657;SDS011;44428;45.630;13.786;2023-02-22T04:04:18;56.28;;;33.92;;
58657;SDS011;44428;45.630;13.786;2023-02-22T04:06:47;52.70;;;33.20;;
58657;SDS011;44428;45.630;13.786;2023-02-22T04:09:16;57.67;;;34.30;;
58657;SDS011;44428;45.630;13.786;2023-02-22T04:11:44;54.88;;;33.63;;
58657;SDS011;44428;45.630;13.786;2023-02-22T04:14:11;59.03;;;35.53;;
58657;SDS011;44428;45.630;13.786;2023-02-22T04:16:37;60.33;;;37.65;;
58657;SDS011;44428;45.630;13.786;2023-02-22T04:19:07;54.70;;;34.55;;
58657;SDS011;44428;45.630;13.786;2023-02-22T04:21:35;60.70;;;36.03;;
58657;SDS011;44428;45.630;13.786;2023-02-22T04:24:02;59.38;;;35.42;;
58657;SDS011;44428;45.630;13.786;2023-02-22T04:26:28;64.57;;;37.80;;
58657;SDS011;44428;45.630;13.786;2023-02-22T04:28:56;62.47;;;38.10;;
58657;SDS011;44428;45.630;13.786;2023-02-22T04:31:26;62.20;;;37.55;;
58657;SDS011;44428;45.630;13.786;2023-02-22T04:33:55;66.25;;;39.67;;
58657;SDS011;44428;45.630;13.786;2023-02-22T04:36:26;67.57;;;38.58;;
58657;SDS011;44428;45.630;13.786;2023-02-22T04:38:52;63.58;;;38.60;;
58657;SDS011;44428;45.630;13.786;2023-02-22T04:41:19;63.90;;;37.38;;
58657;SDS011;44428;45.630;13.786;2023-02-22T04:43:46;61.45;;;36.28;;
58657;SDS011;44428;45.630;13.786;2023-02-22T04:46:16;59.47;;;35.53;;
58657;SDS011;44428;45.630;13.786;2023-02-22T04:48:42;62.22;;;34.47;;
58657;SDS011;44428;45.630;13.786;2023-02-22T04:51:09;62.45;;;37.00;;
58657;SDS011;44428;45.630;13.786;2023-02-22T04:53:36;56.33;;;34.85;;
58657;SDS011;44428;45.630;13.786;2023-02-22T04:56:02;62.67;;;37.72;;
58657;SDS011;44428;45.630;13.786;2023-02-22T04:58:28;60.92;;;35.88;;
58657;SDS011;44428;45.630;13.786;2023-02-22T05:00:56;61.28;;;38.58;;
58657;SDS011;44428;45.630;13.786;2023-02-22T05:03:22;63.75;;;36.15;;
58657;SDS011;44428;45.630;13.786;2023-02-22T05:05:48;60.67;;;36.13;;
58657;SDS011;44428;45.630;13.786;2023-02-22T05:08:16;62.00;;;37.33;;
58657;SDS011;44428;45.630;13.786;2023-02-22T05:10:42;64.75;;;38.15;;
58657;SDS011;44428;45.630;13.786;2023-02-22T05:13:08;63.00;;;37.80;;
58657;SDS011;44428;45.630;13.786;2023-02-22T05:15:34;60.22;;;36.55;;
58657;SDS011;44428;45.630;13.786;2023-02-22T05:18:00;64.82;;;36.78;;
58657;SDS011;44428;45.630;13.786;2023-02-22T05:20:31;71.93;;;39.92;;
58657;SDS011;44428;45.630;13.786;2023-02-22T05:22:59;69.65;;;38.70;;
58657;SDS011;44428;45.630;13.786;2023-02-22T05:25:26;64.85;;;39.03;;
58657;SDS011;44428;45.630;13.786;2023-02-22T05:27:57;70.20;;;39.05;;
58657;SDS011;44428;45.630;13.786;2023-02-22T05:30:34;69.18;;;38.55;;
58657;SDS011;44428;45.630;13.786;2023-02-22T05:33:01;68.95;;;38.72;;
58657;SDS011;44428;45.630;13.786;2023-02-22T05:35:27;74.35;;;41.88;;
58657;SDS011;44428;45.630;13.786;2023-02-22T05:37:53;70.30;;;39.88;;
58657;SDS011;44428;45.630;13.786;2023-02-22T05:40:20;72.80;;;41.10;;
58657;SDS011;44428;45.630;13.786;2023-02-22T05:42:48;65.25;;;38.67;;
58657;SDS011;44428;45.630;13.786;2023-02-22T05:45:19;68.10;;;38.85;;
58657;SDS011;44428;45.630;13.786;2023-02-22T05:47:46;72.75;;;38.72;;
58657;SDS011;44428;45.630;13.786;2023-02-22T05:50:13;66.32;;;38.55;;
58657;SDS011;44428;45.630;13.786;2023-02-22T05:52:41;63.50;;;39.05;;
58657;SDS011;44428;45.630;13.786;2023-02-22T05:55:08;72.30;;;39.72;;
58657;SDS011;44428;45.630;13.786;2023-02-22T05:57:35;72.78;;;41.17;;
58657;SDS011;44428;45.630;13.786;2023-02-22T06:00:03;67.65;;;38.60;;
58657;SDS011;44428;45.630;13.786;2023-02-22T06:02:38;75.40;;;38.90;;
58657;SDS011;44428;45.630;13.786;2023-02-22T06:05:04;72.72;;;39.97;;
58657;SDS011;44428;45.630;13.786;2023-02-22T06:07:30;67.70;;;38.42;;
58657;SDS011;44428;45.630;13.786;2023-02-22T06:09:56;76.07;;;41.88;;
58657;SDS011;44428;45.630;13.786;2023-02-22T06:12:22;73.22;;;42.33;;
58657;SDS011;44428;45.630;13.786;2023-02-22T06:14:48;72.57;;;41.83;;
58657;SDS011;44428;45.630;13.786;2023-02-22T06:17:14;67.00;;;37.78;;
58657;SDS011;44428;45.630;13.786;2023-02-22T06:19:40;62.92;;;38.40;;
58657;SDS011;44428;45.630;13.786;2023-02-22T06:22:06;65.88;;;37.72;;
58657;SDS011;44428;45.630;13.786;2023-02-22T06:24:32;69.50;;;37.53;;
58657;SDS011;44428;45.630;13.786;2023-02-22T06:26:59;65.68;;;38.35;;
58657;SDS011;44428;45.630;13.786;2023-02-22T06:29:27;61.58;;;36.92;;
58657;SDS011;44428;45.630;13.786;2023-02-22T06:31:54;71.40;;;39.25;;
58657;SDS011;44428;45.630;13.786;2023-02-22T06:34:20;73.50;;;40.67;;
58657;SDS011;44428;45.630;13.786;2023-02-22T06:36:47;65.38;;;37.70;;
58657;SDS011;44428;45.630;13.786;2023-02-22T06:39:14;66.03;;;38.95;;
58657;SDS011;44428;45.630;13.786;2023-02-22T06:41:41;68.82;;;37.92;;
58657;SDS011;44428;45.630;13.786;2023-02-22T06:44:08;76.10;;;41.17;;
58657;SDS011;44428;45.630;13.786;2023-02-22T06:46:36;76.25;;;41.72;;
58657;SDS011;44428;45.630;13.786;2023-02-22T06:49:03;75.07;;;38.45;;
58657;SDS011;44428;45.630;13.786;2023-02-22T06:51:30;67.28;;;38.10;;
58657;SDS011;44428;45.630;13.786;2023-02-22T06:54:01;71.65;;;40.05;;
58657;SDS011;44428;45.630;13.786;2023-02-22T06:56:28;75.18;;;39.78;;
58657;SDS011;44428;45.630;13.786;2023-02-22T06:58:54;78.00;;;39.67;;
58657;SDS011;44428;45.630;13.786;2023-02-22T07:01:20;70.68;;;38.58;;
58657;SDS011;44428;45.630;13.786;2023-02-22T07:03:47;71.85;;;38.25;;
58657;SDS011;44428;45.630;13.786;2023-02-22T07:06:14;81.30;;;41.38;;
58657;SDS011;44428;45.630;13.786;2023-02-22T07:08:40;84.20;;;43.95;;
58657;SDS011;44428;45.630;13.786;2023-02-22T07:11:06;83.75;;;41.53;;
58657;SDS011;44428;45.630;13.786;2023-02-22T07:17:03;88.28;;;44.03;;
58657;SDS011;44428;45.630;13.786;2023-02-22T07:19:29;84.25;;;44.45;;
58657;SDS011;44428;45.630;13.786;2023-02-22T07:21:55;83.47;;;43.97;;
58657;SDS011;44428;45.630;13.786;2023-02-22T07:24:24;76.63;;;41.80;;
58657;SDS011;44428;45.630;13.786;2023-02-22T07:26:52;76.97;;;42.50;;
58657;SDS011;44428;45.630;13.786;2023-02-22T07:29:18;81.60;;;43.55;;
58657;SDS011;44428;45.630;13.786;2023-02-22T07:31:47;85.35;;;44.40;;
58657;SDS011;44428;45.630;13.786;2023-02-22T07:34:14;77.05;;;42.75;;
58657;SDS011;44428;45.630;13.786;2023-02-22T07:36:39;83.03;;;43.60;;
58657;SDS011;44428;45.630;13.786;2023-02-22T07:39:05;81.43;;;43.67;;
58657;SDS011;44428;45.630;13.786;2023-02-22T07:41:33;75.93;;;43.05;;
58657;SDS011;44428;45.630;13.786;2023-02-22T07:43:59;73.65;;;42.20;;
58657;SDS011;44428;45.630;13.786;2023-02-22T07:46:25;77.32;;;41.47;;
58657;SDS011;44428;45.630;13.786;2023-02-22T07:48:51;74.80;;;41.63;;
58657;SDS011;44428;45.630;13.786;2023-02-22T07:51:17;69.35;;;40.70;;
58657;SDS011;44428;45.630;13.786;2023-02-22T07:54:04;67.65;;;39.15;;
58657;SDS011;44428;45.630;13.786;2023-02-22T07:56:30;71.45;;;39.55;;
58657;SDS011;44428;45.630;13.786;2023-02-22T07:58:56;70.75;;;40.08;;
58657;SDS011;44428;45.630;13.786;2023-02-22T08:01:22;68.00;;;40.88;;
58657;SDS011;44428;45.630;13.786;2023-02-22T08:03:49;68.97;;;39.75;;
58657;SDS011;44428;45.630;13.786;2023-02-22T08:06:15;69.13;;;40.03;;
58657;SDS011;44428;45.630;13.786;2023-02-22T08:08:41;69.72;;;40.22;;
58657;SDS011;44428;45.630;13.786;2023-02-22T08:11:07;67.43;;;39.80;;
58657;SDS011;44428;45.630;13.786;2023-02-22T08:13:33;63.00;;;38.55;;
58657;SDS011;44428;45.630;13.786;2023-02-22T08:16:01;62.67;;;37.78;;
58657;SDS011;44428;45.630;13.786;2023-02-22T08:18:28;65.38;;;39.50;;
58657;SDS011;44428;45.630;13.786;2023-02-22T08:20:54;62.13;;;38.83;;
58657;SDS011;44428;45.630;13.786;2023-02-22T08:23:21;59.88;;;37.88;;
58657;SDS011;44428;45.630;13.786;2023-02-22T08:25:49;64.78;;;40.78;;
58657;SDS011;44428;45.630;13.786;2023-02-22T08:28:17;60.00;;;37.00;;
58657;SDS011;44428;45.630;13.786;2023-02-22T08:30:46;58.25;;;37.88;;
58657;SDS011;44428;45.630;13.786;2023-02-22T08:33:12;57.28;;;38.15;;
58657;SDS011;44428;45.630;13.786;2023-02-22T08:35:41;56.65;;;36.53;;
58657;SDS011;44428;45.630;13.786;2023-02-22T08:38:13;54.15;;;37.40;;
58657;SDS011;44428;45.630;13.786;2023-02-22T08:40:41;60.05;;;37.78;;
58657;SDS011;44428;45.630;13.786;2023-02-22T08:43:07;55.45;;;36.35;;
58657;SDS011;44428;45.630;13.786;2023-02-22T08:45:33;54.78;;;36.13;;
58657;SDS011;44428;45.630;13.786;2023-02-22T08:47:59;54.28;;;35.42;;
58657;SDS011;44428;45.630;13.786;2023-02-22T08:50:26;55.90;;;34.45;;
58657;SDS011;44428;45.630;13.786;2023-02-22T08:52:56;56.38;;;34.13;;
58657;SDS011;44428;45.630;13.786;2023-02-22T08:55:24;54.72;;;31.95;;
58657;SDS011;44428;45.630;13.786;2023-02-22T08:57:55;55.90;;;32.17;;
58657;SDS011;44428;45.630;13.786;2023-02-22T09:00:21;45.97;;;30.33;;
58657;SDS011;44428;45.630;13.786;2023-02-22T09:02:50;49.13;;;31.38;;
58657;SDS011;44428;45.630;13.786;2023-02-22T09:05:17;48.05;;;30.75;;
58657;SDS011;44428;45.630;13.786;2023-02-22T09:07:43;49.15;;;29.65;;
58657;SDS011;44428;45.630;13.786;2023-02-22T09:10:13;47.92;;;31.63;;
58657;SDS011;44428;45.630;13.786;2023-02-22T09:12:44;48.20;;;31.45;;
58657;SDS011;44428;45.630;13.786;2023-02-22T09:15:10;46.25;;;30.52;;
58657;SDS011;44428;45.630;13.786;2023-02-22T09:17:36;47.08;;;31.80;;
58657;SDS011;44428;45.630;13.786;2023-02-22T09:20:04;46.33;;;30.67;;
58657;SDS011;44428;45.630;13.786;2023-02-22T09:22:31;45.85;;;30.48;;
58657;SDS011;44428;45.630;13.786;2023-02-22T09:24:58;40.85;;;28.45;;
58657;SDS011;44428;45.630;13.786;2023-02-22T09:27:24;43.67;;;30.55;;
58657;SDS011;44428;45.630;13.786;2023-02-22T09:29:53;43.05;;;29.02;;
58657;SDS011;44428;45.630;13.786;2023-02-22T09:32:21;42.95;;;29.80;;
58657;SDS011;44428;45.630;13.786;2023-02-22T09:34:53;43.25;;;30.23;;
58657;SDS011;44428;45.630;13.786;2023-02-22T09:37:20;42.85;;;30.65;;
58657;SDS011;44428;45.630;13.786;2023-02-22T09:39:46;45.00;;;31.50;;
58657;SDS011;44428;45.630;13.786;2023-02-22T09:42:16;54.08;;;31.50;;
58657;SDS011;44428;45.630;13.786;2023-02-22T09:47:25;47.30;;;32.20;;
58657;SDS011;44428;45.630;13.786;2023-02-22T09:50:03;66.65;;;33.15;;
58657;SDS011;44428;45.630;13.786;2023-02-22T09:53:26;45.15;;;30.85;;
58657;SDS011;44428;45.630;13.786;2023-02-22T09:55:55;45.78;;;31.90;;
58657;SDS011;44428;45.630;13.786;2023-02-22T10:09:50;34.08;;;26.95;;
58657;SDS011;44428;45.630;13.786;2023-02-22T10:12:29;33.40;;;27.48;;
58657;SDS011;44428;45.630;13.786;2023-02-22T10:15:29;35.83;;;27.88;;
58657;SDS011;44428;45.630;13.786;2023-02-22T10:25:48;47.20;;;28.48;;
58657;SDS011;44428;45.630;13.786;2023-02-22T10:28:24;45.75;;;29.48;;
58657;SDS011;44428;45.630;13.786;2023-02-22T10:31:03;50.55;;;30.05;;
58657;SDS011;44428;45.630;13.786;2023-02-22T10:33:32;65.05;;;31.27;;
58657;SDS011;44428;45.630;13.786;2023-02-22T10:36:17;41.20;;;27.98;;
58657;SDS011;44428;45.630;13.786;2023-02-22T10:38:53;39.42;;;29.05;;
58657;SDS011;44428;45.630;13.786;2023-02-22T10:41:42;39.17;;;27.65;;
58657;SDS011;44428;45.630;13.786;2023-02-22T10:44:13;42.67;;;29.48;;
58657;SDS011;44428;45.630;13.786;2023-02-22T10:46:39;40.92;;;30.27;;
58657;SDS011;44428;45.630;13.786;2023-02-22T10:49:07;54.88;;;32.72;;
58657;SDS011;44428;45.630;13.786;2023-02-22T10:51:37;51.95;;;32.35;;
58657;SDS011;44428;45.630;13.786;2023-02-22T10:56:52;92.32;;;36.65;;
58657;SDS011;44428;45.630;13.786;2023-02-22T10:59:54;89.67;;;35.60;;
58657;SDS011;44428;45.630;13.786;2023-02-22T11:04:44;39.78;;;30.38;;
58657;SDS011;44428;45.630;13.786;2023-02-22T11:07:19;38.67;;;30.02;;
58657;SDS011;44428;45.630;13.786;2023-02-22T11:09:49;36.80;;;29.10;;
58657;SDS011;44428;45.630;13.786;2023-02-22T11:12:18;41.25;;;30.00;;
58657;SDS011;44428;45.630;13.786;2023-02-22T11:14:54;33.15;;;27.88;;
58657;SDS011;44428;45.630;13.786;2023-02-22T11:17:30;32.67;;;27.75;;
58657;SDS011;44428;45.630;13.786;2023-02-22T11:20:01;34.00;;;28.63;;
58657;SDS011;44428;45.630;13.786;2023-02-22T11:22:38;34.35;;;29.05;;
58657;SDS011;44428;45.630;13.786;2023-02-22T11:25:16;34.50;;;28.70;;
58657;SDS011;44428;45.630;13.786;2023-02-22T11:27:50;35.28;;;29.50;;
58657;SDS011;44428;45.630;13.786;2023-02-22T11:30:27;36.38;;;29.27;;
58657;SDS011;44428;45.630;13.786;2023-02-22T11:33:20;33.70;;;28.60;;
58657;SDS011;44428;45.630;13.786;2023-02-22T11:35:57;36.05;;;27.75;;
58657;SDS011;44428;45.630;13.786;2023-02-22T11:38:30;34.35;;;28.17;;
58657;SDS011;44428;45.630;13.786;2023-02-22T11:44:11;38.65;;;30.30;;
58657;SDS011;44428;45.630;13.786;2023-02-22T11:46:39;36.08;;;30.30;;
58657;SDS011;44428;45.630;13.786;2023-02-22T11:49:08;35.10;;;28.85;;
58657;SDS011;44428;45.630;13.786;2023-02-22T11:51:46;36.05;;;30.55;;
58657;SDS011;44428;45.630;13.786;2023-02-22T11:57:12;38.88;;;31.20;;
58657;SDS011;44428;45.630;13.786;2023-02-22T12:13:51;43.35;;;33.33;;
58657;SDS011;44428;45.630;13.786;2023-02-22T12:16:54;44.65;;;32.80;;
58657;SDS011;44428;45.630;13.786;2023-02-22T12:19:45;47.50;;;37.25;;
58657;SDS011;44428;45.630;13.786;2023-02-22T12:22:17;45.80;;;36.00;;
58657;SDS011;44428;45.630;13.786;2023-02-22T12:24:57;44.83;;;35.10;;
58657;SDS011;44428;45.630;13.786;2023-02-22T12:27:51;67.70;;;37.83;;
58657;SDS011;44428;45.630;13.786;2023-02-22T12:30:25;96.88;;;40.47;;
58657;SDS011;44428;45.630;13.786;2023-02-22T12:32:56;51.08;;;33.80;;
58657;SDS011;44428;45.630;13.786;2023-02-22T12:35:25;45.75;;;33.67;;
58657;SDS011;44428;45.630;13.786;2023-02-22T12:40:36;66.15;;;36.47;;
58657;SDS011;44428;45.630;13.786;2023-02-22T12:43:24;53.13;;;34.28;;
58657;SDS011;44428;45.630;13.786;2023-02-22T12:48:48;48.13;;;33.33;;
58657;SDS011;44428;45.630;13.786;2023-02-22T12:56:47;46.13;;;32.20;;
58657;SDS011;44428;45.630;13.786;2023-02-22T13:04:55;47.22;;;32.92;;
58657;SDS011;44428;45.630;13.786;2023-02-22T13:07:39;47.92;;;32.78;;
58657;SDS011;44428;45.630;13.786;2023-02-22T13:24:24;51.85;;;35.63;;
58657;SDS011;44428;45.630;13.786;2023-02-22T13:27:00;45.95;;;33.28;;
58657;SDS011;44428;45.630;13.786;2023-02-22T13:29:39;48.70;;;34.17;;
58657;SDS011;44428;45.630;13.786;2023-02-22T13:40:34;47.67;;;34.10;;
58657;SDS011;44428;45.630;13.786;2023-02-22T13:56:21;51.88;;;36.78;;
58657;SDS011;44428;45.630;13.786;2023-02-22T13:58:53;46.33;;;33.92;;
58657;SDS011;44428;45.630;13.786;2023-02-22T14:04:32;47.78;;;34.80;;
58657;SDS011;44428;45.630;13.786;2023-02-22T14:09:54;44.95;;;33.83;;
58657;SDS011;44428;45.630;13.786;2023-02-22T14:12:46;46.25;;;34.17;;
58657;SDS011;44428;45.630;13.786;2023-02-22T14:17:44;48.28;;;35.10;;
58657;SDS011;44428;45.630;13.786;2023-02-22T14:22:39;54.38;;;36.67;;
58657;SDS011;44428;45.630;13.786;2023-02-22T14:25:27;50.55;;;36.78;;
58657;SDS011;44428;45.630;13.786;2023-02-22T14:27:56;51.95;;;36.00;;
58657;SDS011;44428;45.630;13.786;2023-02-22T14:30:24;46.05;;;32.67;;
58657;SDS011;44428;45.630;13.786;2023-02-22T14:32:55;48.88;;;37.20;;
58657;SDS011;44428;45.630;13.786;2023-02-22T14:35:21;59.17;;;45.92;;
58657;SDS011;44428;45.630;13.786;2023-02-22T14:37:53;48.05;;;34.58;;
58657;SDS011;44428;45.630;13.786;2023-02-22T14:40:23;42.20;;;32.17;;
58657;SDS011;44428;45.630;13.786;2023-02-22T14:43:09;44.50;;;33.05;;
58657;SDS011;44428;45.630;13.786;2023-02-22T14:46:05;44.28;;;31.70;;
58657;SDS011;44428;45.630;13.786;2023-02-22T14:54:29;43.22;;;31.35;;
58657;SDS011;44428;45.630;13.786;2023-02-22T14:56:59;51.58;;;33.42;;
58657;SDS011;44428;45.630;13.786;2023-02-22T14:59:43;47.92;;;33.35;;
58657;SDS011;44428;45.630;13.786;2023-02-22T15:02:45;47.42;;;32.28;;
58657;SDS011;44428;45.630;13.786;2023-02-22T15:05:13;48.15;;;33.50;;
58657;SDS011;44428;45.630;13.786;2023-02-22T15:07:51;51.08;;;34.65;;
58657;SDS011;44428;45.630;13.786;2023-02-22T15:10:27;47.38;;;30.15;;
58657;SDS011;44428;45.630;13.786;2023-02-22T15:13:05;47.33;;;32.60;;
58657;SDS011;44428;45.630;13.786;2023-02-22T15:15:42;50.72;;;30.52;;
58657;SDS011;44428;45.630;13.786;2023-02-22T15:18:23;47.95;;;32.30;;
58657;SDS011;44428;45.630;13.786;2023-02-22T15:21:04;52.70;;;31.83;;
58657;SDS011;44428;45.630;13.786;2023-02-22T15:26:07;51.05;;;30.60;;
58657;SDS011;44428;45.630;13.786;2023-02-22T15:28:52;49.72;;;31.15;;
58657;SDS011;44428;45.630;13.786;2023-02-22T15:31:21;48.55;;;31.65;;
58657;SDS011;44428;45.630;13.786;2023-02-22T15:33:51;53.38;;;31.65;;
58657;SDS011;44428;45.630;13.786;2023-02-22T15:36:18;44.53;;;29.63;;
58657;SDS011;44428;45.630;13.786;2023-02-22T15:38:48;46.92;;;31.92;;
58657;SDS011;44428;45.630;13.786;2023-02-22T15:41:19;49.42;;;30.95;;
58657;SDS011;44428;45.630;13.786;2023-02-22T15:44:01;59.15;;;31.70;;
58657;SDS011;44428;45.630;13.786;2023-02-22T15:46:27;51.53;;;31.35;;
58657;SDS011;44428;45.630;13.786;2023-02-22T15:49:04;52.15;;;33.17;;
58657;SDS011;44428;45.630;13.786;2023-02-22T15:51:30;50.00;;;32.20;;
58657;SDS011;44428;45.630;13.786;2023-02-22T15:53:58;48.20;;;32.45;;
58657;SDS011;44428;45.630;13.786;2023-02-22T15:56:27;48.70;;;31.48;;
58657;SDS011;44428;45.630;13.786;2023-02-22T15:58:59;49.40;;;31.90;;
58657;SDS011;44428;45.630;13.786;2023-02-22T16:01:35;45.50;;;31.85;;
58657;SDS011;44428;45.630;13.786;2023-02-22T16:04:06;51.75;;;31.88;;
58657;SDS011;44428;45.630;13.786;2023-02-22T16:06:41;59.92;;;33.42;;
58657;SDS011;44428;45.630;13.786;2023-02-22T16:11:42;49.60;;;31.83;;
58657;SDS011;44428;45.630;13.786;2023-02-22T16:14:27;48.40;;;31.35;;
58657;SDS011;44428;45.630;13.786;2023-02-22T16:19:59;51.90;;;31.80;;
58657;SDS011;44428;45.630;13.786;2023-02-22T16:22:46;52.03;;;30.92;;
58657;SDS011;44428;45.630;13.786;2023-02-22T16:27:46;53.57;;;31.77;;
58657;SDS011;44428;45.630;13.786;2023-02-22T16:30:20;53.05;;;31.52;;
58657;SDS011;44428;45.630;13.786;2023-02-22T16:32:56;48.33;;;30.52;;
58657;SDS011;44428;45.630;13.786;2023-02-22T16:35:24;49.75;;;31.52;;
58657;SDS011;44428;45.630;13.786;2023-02-22T16:37:58;49.60;;;30.23;;
58657;SDS011;44428;45.630;13.786;2023-02-22T16:40:30;50.22;;;32.28;;
58657;SDS011;44428;45.630;13.786;2023-02-22T16:43:00;52.55;;;32.45;;
58657;SDS011;44428;45.630;13.786;2023-02-22T16:45:27;60.30;;;31.60;;
58657;SDS011;44428;45.630;13.786;2023-02-22T16:47:54;57.58;;;34.10;;
58657;SDS011;44428;45.630;13.786;2023-02-22T16:50:20;86.32;;;44.35;;
58657;SDS011;44428;45.630;13.786;2023-02-22T16:52:48;81.10;;;47.17;;
58657;SDS011;44428;45.630;13.786;2023-02-22T16:55:18;65.35;;;38.67;;
58657;SDS011;44428;45.630;13.786;2023-02-22T16:57:45;53.20;;;35.08;;
58657;SDS011;44428;45.630;13.786;2023-02-22T17:00:20;61.90;;;37.05;;
58657;SDS011;44428;45.630;13.786;2023-02-22T17:02:56;58.03;;;35.53;;
58657;SDS011;44428;45.630;13.786;2023-02-22T17:05:29;54.72;;;34.45;;